This is the latest recevied weather packets stored in our database for station/object IZ0VWB-3. If no packets are shown the sender has not sent any weather packets the latest 1 day(s).
| Time | Temp. | Humidity | Pressure | Rain* | Wind** | Luminosity | Snow |
|---|---|---|---|---|---|---|---|
| 1778028815 | 13.89° C | 83% | 1000.4 hPa | 0 mm | 0.45 m/s, 131° | - | - |
| 1778028215 | 13.89° C | 83% | 1000.3 hPa | 0 mm | 0.45 m/s, 159° | - | - |
| 1778027616 | 13.89° C | 83% | 1000.3 hPa | 0 mm | 0.89 m/s, 131° | - | - |
| 1778027016 | 13.89° C | 83% | 1000.3 hPa | 0 mm | 0.89 m/s, 138° | - | - |
| 1778026416 | 13.89° C | 83% | 1000.5 hPa | 0 mm | 0.89 m/s, 139° | - | - |
| 1778025816 | 13.89° C | 83% | 1000.4 hPa | 0 mm | 1.34 m/s, 144° | - | - |
| 1778025215 | 13.89° C | 82% | 1000.5 hPa | 0 mm | 1.34 m/s, 122° | - | - |
| 1778024616 | 14.44° C | 83% | 1000.7 hPa | 0 mm | 0.89 m/s, 138° | - | - |
| 1778024016 | 14.44° C | 83% | 1000.8 hPa | 0 mm | 0.89 m/s, 138° | - | - |
| 1778023415 | 14.44° C | 83% | 1000.9 hPa | 0 mm | 0.89 m/s, 124° | - | - |
| 1778022814 | 14.44° C | 83% | 1001.2 hPa | 0 mm | 0.89 m/s, 138° | - | - |
| 1778022214 | 14.44° C | 83% | 1001.4 hPa | 0 mm | 1.34 m/s, 119° | - | - |
| 1778021615 | 14.44° C | 83% | 1001.4 hPa | 0 mm | 0 m/s | - | - |
| 1778021015 | 14.44° C | 83% | 1001.5 hPa | 0 mm | 0 m/s | - | - |
| 1778020414 | 14.44° C | 83% | 1001.4 hPa | 0 mm | 0 m/s | - | - |
| 1778019814 | 14.44° C | 83% | 1001.3 hPa | 0 mm | 0.45 m/s, 135° | - | - |
| 1778019215 | 14.44° C | 83% | 1001.5 hPa | 0 mm | 0 m/s | - | - |
| 1778018614 | 14.44° C | 83% | 1001.6 hPa | 0 mm | 0 m/s | - | - |
| 1778017992 | 14.44° C | 83% | 1001.7 hPa | 0 mm | 0.89 m/s, 127° | - | - |
| 1778017393 | 14.44° C | 84% | 1001.7 hPa | 0 mm | 0.45 m/s, 131° | - | - |
| 1778016792 | 14.44° C | 84% | 1001.8 hPa | 0 mm | 0.89 m/s, 120° | - | - |
| 1778016193 | 14.44° C | 84% | 1001.8 hPa | 0 mm | 0.45 m/s, 123° | - | - |
| 1778015592 | 15° C | 84% | 1001.9 hPa | 0 mm | 0.45 m/s, 123° | - | - |
| 1778014992 | 15° C | 84% | 1001.9 hPa | 0 mm | 0.45 m/s, 144° | - | - |
| 1778014393 | 15° C | 84% | 1001.9 hPa | 0 mm | 0.89 m/s, 125° | - | - |
* Rain latest hour (hover to see other rain measurements)
** Current wind speed in m/s (hover to see current wind gust speed)